ADDS TAF Data INFO
IDs: Format: Raw Decoded Include METARs

Data at: 1158 UTC 25 Jun 2018

METAR for:MWCR (Grand Cayman/Roberts, --, GC)
Text:MWCR 251100Z 11008KT 9999 VCSH FEW018 27/22 Q1015
Temperature: 27.0°C ( 81°F)
Dewpoint: 22.0°C ( 72°F) [RH = 74%]
Pressure (altimeter):29.97 inches Hg (1015.0 mb)
Winds:from the ESE (110 degrees) at 9 MPH (8 knots; 4.1 m/s)
Visibility:6 or more sm (10+ km)
Ceiling:at least 12,000 feet AGL
Clouds: few clouds at 1800 feet AGL
Weather:VCSH (showers in vicinity)

TAF for:MWCR (Grand Cayman/Roberts, --, GC) issued at 1100 UTC 25 Jun 2018
Text:TAF MWCR 251100Z 2512/2612 12010KT 9000 TS VCSH SCT016CB
Forecast period:1200 UTC 25 June 2018 to 1200 UTC 26 June 2018
Forecast type:FROM: standard forecast or significant change
Winds:from the ESE (120 degrees) at 12 MPH (10 knots; 5.1 m/s)
Visibility: 6 sm ( 9 km)
Ceiling:at least 12,000 feet AGL
Clouds: scattered clouds at 1600 feet AGL
Weather:TS VCSH (thunderstorm, showers in vicinity)